Time;durP1;ratioP1;P1;durP2;ratioP2;P2;SDS_P1;SDS_P2;PMS_P1;PMS_P2;Temp;Humidity;BMP_temperature;BMP_pressure;BME280_temperature;BME280_humidity;BME280_pressure;Samples;Min_cycle;Max_cycle;Signal;HPM_P1;HPM_P2
2022/06/28 04:30:47;;;;;;;;;0.00;0.00;;;;;19.22;52.08;101715.50;5085861;27;45998;-71
2022/06/28 04:33:12;;;;;;;;;0.00;0.00;;;;;19.19;52.45;101716.56;5035801;28;45735;-73
2022/06/28 04:35:37;;;;;;;;;0.75;0.50;;;;;19.23;52.33;101722.66;5017372;28;45276;-71
2022/06/28 04:38:03;;;;;;;;;1.00;1.00;;;;;19.23;51.86;101718.09;5035427;28;45294;-71
2022/06/28 04:40:28;;;;;;;;;1.00;1.00;;;;;19.12;52.07;101706.22;5035543;28;45375;-72
2022/06/28 04:42:54;;;;;;;;;0.75;0.75;;;;;19.20;52.00;101722.88;5035461;28;45495;-71
2022/06/28 04:45:19;;;;;;;;;0.00;0.00;;;;;19.18;51.61;101722.97;5035549;28;45545;-71
2022/06/28 04:47:45;;;;;;;;;0.25;0.25;;;;;19.15;51.94;101712.28;5035525;28;46142;-72
2022/06/28 04:50:10;;;;;;;;;0.00;0.00;;;;;19.22;51.69;101726.38;5017241;28;45333;-71
2022/06/28 04:52:36;;;;;;;;;0.75;0.75;;;;;19.16;51.69;101713.16;5034910;28;45387;-71
2022/06/28 04:55:04;;;;;;;;;0.00;0.00;;;;;19.25;51.26;101726.16;5028685;28;45372;-71
2022/06/28 04:57:30;;;;;;;;;1.00;1.00;;;;;19.24;51.47;101733.44;5015263;28;46450;-71
2022/06/28 04:59:55;;;;;;;;;1.50;0.50;;;;;19.27;51.33;101730.53;5014911;28;45334;-71
2022/06/28 05:02:21;;;;;;;;;0.00;0.00;;;;;19.29;51.38;101727.72;5015301;28;45223;-73
2022/06/28 05:04:46;;;;;;;;;0.00;0.00;;;;;19.34;51.54;101722.81;5015129;28;45529;-72
2022/06/28 05:07:12;;;;;;;;;0.50;0.50;;;;;19.24;51.24;101708.97;5014970;28;48057;-74
2022/06/28 05:09:37;;;;;;;;;0.25;0.25;;;;;19.41;51.18;101735.03;5014812;28;45260;-71
2022/06/28 05:12:03;;;;;;;;;0.00;0.00;;;;;19.44;51.42;101734.81;5015454;28;45590;-72
2022/06/28 05:14:28;;;;;;;;;1.00;1.00;;;;;19.44;51.13;101725.78;5015030;28;45450;-73
2022/06/28 05:16:54;;;;;;;;;0.50;0.50;;;;;19.45;51.02;101722.09;5014916;28;45333;-73
2022/06/28 05:19:19;;;;;;;;;0.25;0.25;;;;;19.48;50.99;101725.50;5014053;28;45685;-73
2022/06/28 05:21:44;;;;;;;;;1.00;1.00;;;;;19.55;50.76;101737.75;5034974;28;45425;-73
2022/06/28 05:24:10;;;;;;;;;0.25;0.25;;;;;19.63;50.79;101737.22;5034575;28;45344;-72
2022/06/28 05:26:35;;;;;;;;;0.00;0.00;;;;;19.62;50.87;101738.19;5034575;28;45328;-70
2022/06/28 05:29:01;;;;;;;;;1.00;1.00;;;;;19.69;50.55;101735.91;5034582;28;45467;-72
2022/06/28 05:31:26;;;;;;;;;0.75;0.75;;;;;19.76;50.78;101732.66;5034540;28;45459;-69
2022/06/28 05:33:52;;;;;;;;;1.00;1.00;;;;;19.83;50.62;101742.16;5034172;28;45475;-71
2022/06/28 05:36:17;;;;;;;;;2.00;0.75;;;;;19.83;50.01;101730.38;5034407;28;46233;-72
2022/06/28 05:38:43;;;;;;;;;0.75;0.75;;;;;19.89;49.42;101730.00;5034523;28;45471;-73
2022/06/28 05:41:09;;;;;;;;;0.00;0.00;;;;;19.91;49.98;101737.06;5034796;28;45424;-70
2022/06/28 05:43:35;;;;;;;;;0.00;0.00;;;;;19.87;49.12;101718.34;5034256;28;45289;-74
2022/06/28 05:46:01;;;;;;;;;0.00;0.00;;;;;19.94;48.94;101731.41;5034326;28;46665;-72
2022/06/28 05:48:26;;;;;;;;;1.00;1.00;;;;;19.98;49.05;101732.94;5033919;28;45182;-69
2022/06/28 05:50:52;;;;;;;;;0.00;0.00;;;;;20.01;49.09;101726.41;5034588;28;45339;-70
2022/06/28 05:53:17;;;;;;;;;0.00;0.00;;;;;20.09;48.20;101728.59;5033757;28;45403;-68
2022/06/28 05:55:43;;;;;;;;;0.75;0.75;;;;;20.10;48.26;101706.69;5001446;28;47084;-72
2022/06/28 05:58:08;;;;;;;;;0.00;0.00;;;;;20.17;48.47;101713.44;5011677;28;45190;-69
2022/06/28 06:00:37;;;;;;;;;1.00;1.00;;;;;20.18;48.28;101701.59;4996431;28;45182;-70
2022/06/28 06:03:02;;;;;;;;;2.00;0.75;;;;;20.27;48.05;101713.69;5013605;28;45383;-70
2022/06/28 06:05:28;;;;;;;;;0.00;0.00;;;;;20.30;47.58;101708.91;5013716;28;45972;-71
2022/06/28 06:07:53;;;;;;;;;2.00;0.50;;;;;20.36;47.09;101724.81;5013674;28;45296;-68
2022/06/28 06:10:19;;;;;;;;;0.50;0.50;;;;;20.36;47.35;101715.78;5014542;28;45807;-68
2022/06/28 06:12:45;;;;;;;;;0.25;0.25;;;;;20.42;47.50;101719.91;5013702;28;46526;-71
2022/06/28 06:15:11;;;;;;;;;0.00;0.00;;;;;20.47;47.24;101713.16;5012185;28;46027;-71
2022/06/28 06:17:36;;;;;;;;;0.00;0.00;;;;;20.50;46.92;101710.19;5033311;28;45518;-71
2022/06/28 06:20:02;;;;;;;;;0.25;0.00;;;;;20.54;46.78;101711.75;5033697;28;45332;-69
2022/06/28 06:22:29;;;;;;;;;1.00;1.00;;;;;20.53;46.84;101710.00;5031837;28;45585;-71
2022/06/28 06:24:54;;;;;;;;;1.00;1.00;;;;;20.52;47.46;101702.78;5031973;28;46151;-72
2022/06/28 06:27:20;;;;;;;;;0.00;0.00;;;;;20.57;46.85;101703.34;5033640;28;45325;-71
2022/06/28 06:29:45;;;;;;;;;0.75;0.00;;;;;20.54;47.07;101697.25;5034155;28;45297;-70
2022/06/28 06:32:11;;;;;;;;;1.00;1.00;;;;;20.66;46.89;101708.13;5033745;28;45324;-71
2022/06/28 06:34:36;;;;;;;;;0.50;0.50;;;;;20.71;46.88;101705.06;5033554;28;46083;-72
2022/06/28 06:37:02;;;;;;;;;1.50;1.50;;;;;20.74;46.94;101708.44;5015214;28;45368;-71
2022/06/28 06:39:27;;;;;;;;;0.00;0.00;;;;;20.76;46.62;101697.41;5033815;28;45407;-72
2022/06/28 06:41:52;;;;;;;;;0.25;0.25;;;;;20.80;46.74;101700.78;5015527;28;45533;-71
2022/06/28 06:44:18;;;;;;;;;0.50;0.50;;;;;20.75;46.47;101696.56;5033479;28;46120;-71
2022/06/28 06:46:44;;;;;;;;;2.00;1.00;;;;;20.80;46.73;101707.13;5033553;28;45269;-71
2022/06/28 06:49:09;;;;;;;;;0.75;0.75;;;;;20.85;46.33;101696.72;5033282;28;45433;-71
2022/06/28 06:51:35;;;;;;;;;1.00;1.00;;;;;20.94;46.66;101706.97;5032947;28;45502;-71
2022/06/28 06:54:01;;;;;;;;;0.50;0.50;;;;;20.91;46.47;101688.13;5033375;28;45647;-70
2022/06/28 06:56:27;;;;;;;;;1.50;1.00;;;;;20.97;46.50;101704.00;5016108;28;45297;-70
2022/06/28 06:58:53;;;;;;;;;1.00;1.00;;;;;21.00;46.30;101695.63;5013379;28;45545;-71
2022/06/28 07:01:18;;;;;;;;;1.75;1.75;;;;;20.95;45.84;101691.47;5012937;28;45491;-71
2022/06/28 07:03:46;;;;;;;;;1.00;1.00;;;;;20.91;46.57;101679.94;5008453;28;46008;-67
2022/06/28 07:06:12;;;;;;;;;2.00;2.00;;;;;21.04;46.65;101691.66;5011400;28;45549;-71
2022/06/28 07:08:38;;;;;;;;;1.50;1.25;;;;;21.04;46.61;101686.22;5015353;28;45449;-71
2022/06/28 07:11:04;;;;;;;;;1.50;1.50;;;;;21.05;46.21;101678.91;5032098;28;45533;-71
2022/06/28 07:13:29;;;;;;;;;2.25;2.00;;;;;21.05;46.43;101678.91;5032802;28;45955;-67
2022/06/28 07:15:55;;;;;;;;;3.00;1.50;;;;;21.07;46.23;101675.09;5032968;28;45363;-71
2022/06/28 07:18:20;;;;;;;;;1.50;1.50;;;;;21.07;46.30;101672.34;5036220;28;45397;-69
2022/06/28 07:20:46;;;;;;;;;0.75;0.75;;;;;21.09;46.08;101675.84;5036372;28;45249;-71
2022/06/28 07:23:11;;;;;;;;;1.25;1.25;;;;;21.12;46.49;101672.00;5036038;28;45261;-69
2022/06/28 07:25:36;;;;;;;;;1.00;1.00;;;;;21.19;46.95;101664.25;5036085;28;45469;-70
2022/06/28 07:28:02;;;;;;;;;4.00;0.50;;;;;21.19;46.28;101658.78;5036375;28;45354;-70
2022/06/28 07:30:27;;;;;;;;;1.50;1.50;;;;;21.23;46.33;101665.78;5023209;28;45261;-69
2022/06/28 07:32:53;;;;;;;;;1.00;1.00;;;;;21.28;46.10;101647.19;5015494;28;45919;-72
2022/06/28 07:35:18;;;;;;;;;0.50;0.50;;;;;21.34;46.32;101668.56;5014575;28;45467;-70
2022/06/28 07:37:46;;;;;;;;;3.00;1.00;;;;;21.37;46.47;101660.13;5010612;28;45456;-68
2022/06/28 07:40:12;;;;;;;;;2.00;1.00;;;;;21.35;46.49;101641.13;5015211;28;45425;-68
2022/06/28 07:42:37;;;;;;;;;1.00;1.00;;;;;21.29;46.25;101630.72;5016157;28;45308;-68
2022/06/28 07:45:03;;;;;;;;;2.75;1.75;;;;;21.44;45.87;101645.03;5015970;28;45543;-69
2022/06/28 07:47:28;;;;;;;;;5.00;2.00;;;;;21.46;45.92;101653.97;5016574;28;45394;-69
2022/06/28 07:52:51;;;;;;;;;2.50;2.00;;;;;21.51;46.29;101647.19;4992484;28;45551;-69
2022/06/28 07:55:16;;;;;;;;;2.00;2.00;;;;;21.49;45.87;101638.25;5015468;28;45377;-68
2022/06/28 07:57:42;;;;;;;;;1.50;1.50;;;;;21.47;46.16;101634.75;5015549;28;45968;-70
2022/06/28 08:00:08;;;;;;;;;1.25;1.25;;;;;21.53;46.40;101626.09;5015581;28;45314;-68
2022/06/28 08:02:33;;;;;;;;;2.50;1.50;;;;;21.54;45.85;101624.22;5013007;28;45442;-70
2022/06/28 08:04:59;;;;;;;;;2.00;2.00;;;;;21.61;45.97;101630.06;4998566;28;45557;-70
2022/06/28 08:07:24;;;;;;;;;3.50;1.75;;;;;21.62;46.21;101632.69;5021470;28;45360;-69
2022/06/28 08:09:50;;;;;;;;;3.00;1.25;;;;;21.63;45.65;101626.25;5015642;28;45271;-70
2022/06/28 08:12:15;;;;;;;;;3.25;3.00;;;;;21.71;46.30;101634.69;5021067;28;46600;-70
2022/06/28 08:14:41;;;;;;;;;1.25;1.25;;;;;21.71;45.95;101623.78;5014240;28;45411;-67
2022/06/28 08:17:07;;;;;;;;;0.25;0.25;;;;;21.75;45.93;101618.97;5014958;28;45744;-70
2022/06/28 08:19:34;;;;;;;;;2.75;2.25;;;;;21.79;45.89;101618.59;5001891;28;45341;-69
2022/06/28 08:22:00;;;;;;;;;1.00;1.00;;;;;21.81;45.27;101622.06;5014885;28;45449;-69
2022/06/28 08:24:25;;;;;;;;;2.00;2.00;;;;;21.82;44.99;101617.47;5014922;28;45290;-69
2022/06/28 08:26:52;;;;;;;;;2.00;1.00;;;;;21.84;45.60;101613.66;5015321;28;45378;-68
2022/06/28 08:29:18;;;;;;;;;2.75;1.50;;;;;21.77;45.57;101589.69;5013764;28;45453;-69
2022/06/28 08:31:44;;;;;;;;;1.00;1.00;;;;;21.84;44.58;101604.59;5014498;28;46092;-69
2022/06/28 08:34:10;;;;;;;;;1.50;1.50;;;;;21.88;44.62;101598.75;5015021;28;45482;-68
2022/06/28 08:36:35;;;;;;;;;3.00;1.75;;;;;21.90;44.74;101604.97;5015368;28;45384;-67
2022/06/28 08:39:03;;;;;;;;;2.00;2.00;;;;;21.94;45.00;101597.41;5014961;28;45572;-68
2022/06/28 08:41:31;;;;;;;;;1.00;1.00;;;;;21.96;44.85;101603.59;5015032;28;45501;-68
2022/06/28 08:43:57;;;;;;;;;1.00;1.00;;;;;22.04;44.42;101601.16;5014918;28;45355;-69
2022/06/28 08:46:26;;;;;;;;;1.00;1.00;;;;;22.08;44.22;101604.50;5014990;28;45508;-69
2022/06/28 08:48:55;;;;;;;;;1.00;1.00;;;;;22.08;42.52;101597.19;5014736;28;45527;-69
2022/06/28 08:51:30;;;;;;;;;1.25;1.25;;;;;22.06;42.49;101581.91;4995300;28;46995;-68
2022/06/28 08:53:58;;;;;;;;;3.50;3.00;;;;;21.99;42.73;101587.00;5014278;28;45373;-71
2022/06/28 08:56:24;;;;;;;;;2.00;2.00;;;;;21.90;43.13;101588.56;5006395;28;45294;-70
2022/06/28 08:58:50;;;;;;;;;2.00;2.00;;;;;21.82;43.48;101571.06;5013750;28;45552;-71
2022/06/28 09:01:15;;;;;;;;;2.00;2.00;;;;;21.85;43.50;101570.84;5012796;28;45415;-70
2022/06/28 09:03:41;;;;;;;;;0.50;0.50;;;;;21.87;43.67;101557.91;5013782;28;45399;-68
2022/06/28 09:06:06;;;;;;;;;3.75;2.00;;;;;22.00;42.38;101566.91;5013983;28;45421;-68
2022/06/28 09:08:32;;;;;;;;;2.00;1.00;;;;;21.98;41.53;101551.63;5013688;28;45392;-69
2022/06/28 09:10:58;;;;;;;;;1.00;1.00;;;;;22.08;41.81;101558.09;5013469;28;46322;-68
2022/06/28 09:13:23;;;;;;;;;1.25;1.25;;;;;22.09;42.16;101552.50;5014174;28;45443;-68
2022/06/28 09:15:56;;;;;;;;;4.00;2.00;;;;;22.11;41.56;101555.13;5014239;28;45892;-71
2022/06/28 09:18:35;;;;;;;;;3.00;2.00;;;;;22.12;40.85;101537.72;5014710;28;45324;-68
2022/06/28 09:21:02;;;;;;;;;3.25;2.00;;;;;22.22;41.88;101547.75;5013815;28;45350;-69
2022/06/28 09:23:30;;;;;;;;;1.00;1.00;;;;;22.28;41.64;101543.69;5014275;28;45432;-67
2022/06/28 09:26:01;;;;;;;;;2.00;2.00;;;;;22.27;39.87;101531.88;5014533;28;45508;-67
2022/06/28 09:28:29;;;;;;;;;2.00;0.00;;;;;22.31;37.99;101535.22;5014238;28;45491;-68
2022/06/28 09:31:13;;;;;;;;;0.00;0.00;;;;;22.32;38.81;101530.63;5028721;28;45341;-71
2022/06/28 09:33:39;;;;;;;;;0.00;0.00;;;;;22.31;38.69;101527.00;5034253;28;45372;-68
2022/06/28 09:36:05;;;;;;;;;0.50;0.50;;;;;22.29;38.61;101514.50;5034386;28;45266;-68
2022/06/28 09:38:32;;;;;;;;;2.00;2.00;;;;;22.34;38.79;101526.78;5033949;28;45632;-69
2022/06/28 09:41:01;;;;;;;;;1.00;1.00;;;;;22.40;39.17;101523.53;5033437;28;46263;-68
2022/06/28 09:43:34;;;;;;;;;3.00;1.50;;;;;22.43;38.69;101516.94;5033824;28;45321;-69
2022/06/28 09:46:03;;;;;;;;;1.00;1.00;;;;;22.50;38.80;101526.34;5034372;28;45495;-70
2022/06/28 09:48:35;;;;;;;;;1.00;1.00;;;;;22.56;38.67;101515.78;5033841;28;45353;-71
2022/06/28 09:51:01;;;;;;;;;1.00;1.00;;;;;22.64;38.43;101515.13;5033770;28;46118;-71
2022/06/28 09:53:29;;;;;;;;;2.00;2.00;;;;;22.64;36.54;101513.25;5033644;28;45368;-72
2022/06/28 09:56:00;;;;;;;;;1.25;1.25;;;;;22.63;37.50;101499.72;5021550;28;45331;-71
2022/06/28 09:58:26;;;;;;;;;3.00;2.00;;;;;22.57;36.79;101500.25;5000835;28;45505;-71
2022/06/28 10:00:54;;;;;;;;;1.50;1.50;;;;;22.58;36.73;101512.91;5013437;28;46253;-78
2022/06/28 10:03:20;;;;;;;;;0.75;0.75;;;;;22.55;36.97;101494.91;5011606;28;45337;-78
2022/06/28 10:05:46;;;;;;;;;0.50;0.50;;;;;22.60;36.99;101486.34;5013757;28;45408;-75
2022/06/28 10:08:12;;;;;;;;;2.50;1.75;;;;;22.61;36.93;101479.88;5013656;28;45531;-74
2022/06/28 10:10:40;;;;;;;;;1.00;1.00;;;;;22.74;37.78;101488.78;5013484;28;45506;-77
2022/06/28 10:16:19;;;;;;;;;3.00;1.00;;;;;22.90;38.00;101481.00;5013553;28;45440;-74
2022/06/28 10:18:46;;;;;;;;;0.00;0.00;;;;;22.91;37.07;101482.75;5003480;28;45389;-73
2022/06/28 10:21:12;;;;;;;;;1.50;1.50;;;;;22.93;36.46;101482.63;5003414;28;46296;-74
2022/06/28 10:23:42;;;;;;;;;1.50;1.50;;;;;22.92;36.69;101476.28;5011878;28;45425;-73
2022/06/28 10:26:15;;;;;;;;;1.25;1.25;;;;;22.89;36.88;101462.84;5010771;28;45399;-72
2022/06/28 10:28:42;;;;;;;;;3.00;1.00;;;;;22.93;35.54;101475.28;5006650;28;45511;-69
2022/06/28 10:31:25;;;;;;;;;1.75;1.00;;;;;22.94;37.10;101460.63;5012138;28;46187;-73
2022/06/28 10:33:56;;;;;;;;;0.75;0.75;;;;;22.97;36.67;101473.13;5011375;28;45460;-70
2022/06/28 10:36:24;;;;;;;;;2.00;2.00;;;;;22.97;36.12;101462.19;5012161;28;45380;-71
2022/06/28 10:39:08;;;;;;;;;1.25;1.25;;;;;23.00;36.86;101464.69;5011927;28;45541;-69
2022/06/28 10:41:51;;;;;;;;;1.75;1.75;;;;;23.04;35.19;101451.63;5008260;28;45360;-69
2022/06/28 10:44:29;;;;;;;;;1.25;1.25;;;;;23.05;36.59;101443.28;5004622;28;45339;-67
2022/06/28 10:47:01;;;;;;;;;3.25;1.75;;;;;23.19;36.41;101450.28;5005699;28;46050;-70
2022/06/28 10:49:48;;;;;;;;;1.00;1.00;;;;;23.24;36.60;101437.91;5010846;28;45528;-70
2022/06/28 10:52:23;;;;;;;;;2.00;2.00;;;;;23.36;36.22;101450.53;5012701;28;45440;-69
2022/06/28 10:54:52;;;;;;;;;1.25;1.25;;;;;23.43;35.39;101447.22;5011508;28;45665;-69
2022/06/28 10:57:26;;;;;;;;;2.50;0.50;;;;;23.47;36.44;101440.50;4993103;28;45588;-68
2022/06/28 10:59:54;;;;;;;;;1.00;1.00;;;;;23.56;35.11;101440.53;5006467;28;45460;-69
2022/06/28 11:02:21;;;;;;;;;2.00;1.00;;;;;23.59;34.66;101431.19;5011733;28;45510;-68
2022/06/28 11:05:07;;;;;;;;;2.50;0.75;;;;;23.68;35.04;101435.84;5015585;28;45442;-70
2022/06/28 11:07:34;;;;;;;;;3.00;2.00;;;;;23.75;34.87;101437.03;5014956;28;45222;-68
2022/06/28 11:09:59;;;;;;;;;2.50;1.25;;;;;23.85;35.16;101437.06;5016021;28;45534;-71
2022/06/28 11:12:28;;;;;;;;;1.00;1.00;;;;;23.92;34.79;101436.38;5015515;28;46215;-67
2022/06/28 11:15:03;;;;;;;;;0.50;0.50;;;;;23.94;34.29;101426.16;5012337;28;45334;-69
2022/06/28 11:17:33;;;;;;;;;3.00;1.00;;;;;24.02;34.86;101422.69;5010200;28;45574;-67
2022/06/28 11:20:05;;;;;;;;;1.00;1.00;;;;;24.07;34.83;101426.75;5015129;28;45633;-67
2022/06/28 11:22:37;;;;;;;;;1.00;1.00;;;;;24.14;32.83;101416.97;5015238;28;46215;-69
2022/06/28 11:25:05;;;;;;;;;1.25;1.00;;;;;24.22;33.66;101413.56;4998385;28;45560;-69
2022/06/28 11:27:32;;;;;;;;;0.50;0.50;;;;;24.22;32.90;101410.81;5016465;28;45487;-70
2022/06/28 11:30:00;;;;;;;;;1.00;1.00;;;;;24.33;32.45;101427.09;5016516;28;45343;-70
2022/06/28 11:32:38;;;;;;;;;0.75;0.75;;;;;24.30;31.63;101430.16;5016292;28;45436;-70
2022/06/28 11:35:10;;;;;;;;;1.75;1.75;;;;;24.36;32.28;101425.97;5016297;28;45400;-69
2022/06/28 11:37:56;;;;;;;;;0.75;0.75;;;;;24.38;32.92;101413.84;5016695;28;45562;-68
2022/06/28 11:40:21;;;;;;;;;1.50;1.50;;;;;24.49;33.03;101411.00;4998526;28;45467;-70
2022/06/28 11:42:58;;;;;;;;;0.50;0.50;;;;;24.55;33.43;101416.91;5016377;28;46249;-68
2022/06/28 11:45:24;;;;;;;;;4.25;2.50;;;;;24.64;32.46;101425.13;5020006;28;45423;-70
2022/06/28 11:47:49;;;;;;;;;1.75;1.75;;;;;24.53;32.64;101395.09;5016315;28;45326;-70
2022/06/28 11:50:18;;;;;;;;;0.00;0.00;;;;;24.72;33.15;101407.94;5016255;28;45597;-69
2022/06/28 11:52:52;;;;;;;;;3.75;0.75;;;;;24.86;31.79;101394.63;5035815;28;45461;-69
2022/06/28 11:55:35;;;;;;;;;1.25;1.25;;;;;24.97;32.77;101385.41;5023792;28;45734;-69
2022/06/28 11:58:37;;;;;;;;;2.00;1.00;;;;;25.03;32.93;101398.53;5016152;28;45835;-70
2022/06/28 12:01:17;;;;;;;;;1.00;1.00;;;;;25.14;32.52;101403.00;4993390;28;46022;-71
2022/06/28 12:03:43;;;;;;;;;0.75;0.75;;;;;25.17;33.05;101391.72;5012953;28;46200;-73
2022/06/28 12:06:19;;;;;;;;;0.50;0.50;;;;;25.15;32.40;101389.13;5015495;28;45448;-71
2022/06/28 12:08:46;;;;;;;;;1.00;1.00;;;;;25.25;32.29;101384.47;5015743;28;45309;-70
2022/06/28 12:11:40;;;;;;;;;1.00;1.00;;;;;25.32;32.45;101371.00;5015426;28;45430;-70
2022/06/28 12:14:13;;;;;;;;;4.00;1.75;;;;;25.34;32.22;101368.13;5015396;28;46102;-71
2022/06/28 12:16:45;;;;;;;;;1.50;1.00;;;;;25.39;31.69;101369.38;5015617;28;45225;-72
2022/06/28 12:19:28;;;;;;;;;2.00;1.00;;;;;25.36;31.49;101355.97;5015620;28;45372;-68
2022/06/28 12:22:04;;;;;;;;;1.00;1.00;;;;;25.49;31.89;101375.72;4997670;28;45548;-72
2022/06/28 12:24:51;;;;;;;;;0.75;0.75;;;;;25.55;32.43;101368.75;5015432;28;45400;-71
2022/06/28 12:27:21;;;;;;;;;0.50;0.50;;;;;25.67;31.96;101370.31;5015063;28;45305;-72
2022/06/28 12:29:48;;;;;;;;;1.00;1.00;;;;;25.72;32.53;101348.72;5015695;28;45416;-72
2022/06/28 12:32:14;;;;;;;;;0.75;0.75;;;;;25.80;32.23;101339.72;5014592;28;45846;-71
2022/06/28 12:34:40;;;;;;;;;1.00;1.00;;;;;25.89;31.02;101350.66;5014767;28;45932;-72
2022/06/28 12:37:06;;;;;;;;;3.25;1.75;;;;;25.94;31.02;101348.31;5015243;28;45507;-70
2022/06/28 12:39:32;;;;;;;;;1.00;1.00;;;;;26.03;31.42;101349.22;5015768;28;45245;-71
2022/06/28 12:41:57;;;;;;;;;1.00;1.00;;;;;26.12;31.16;101341.94;5014882;28;46504;-71
2022/06/28 12:44:22;;;;;;;;;1.00;1.00;;;;;26.20;30.61;101334.63;5014760;28;45527;-73
2022/06/28 12:46:51;;;;;;;;;2.75;1.75;;;;;26.26;28.97;101339.56;5015075;28;45199;-71
2022/06/28 12:49:17;;;;;;;;;0.50;0.50;;;;;26.34;27.58;101350.63;5015328;28;45552;-70
2022/06/28 12:51:42;;;;;;;;;1.00;0.75;;;;;26.44;28.03;101344.19;5014587;28;45424;-71
2022/06/28 12:54:07;;;;;;;;;2.75;2.00;;;;;26.51;28.18;101346.16;5014796;28;45491;-72
2022/06/28 12:56:33;;;;;;;;;0.75;0.75;;;;;26.55;28.17;101331.03;5015317;28;45337;-71
2022/06/28 12:58:58;;;;;;;;;3.00;2.75;;;;;26.71;27.96;101330.31;5015069;28;45388;-73
2022/06/28 13:01:24;;;;;;;;;1.00;1.00;;;;;26.81;28.42;101328.31;5014579;28;45399;-72
2022/06/28 13:03:50;;;;;;;;;1.50;1.50;;;;;26.97;28.23;101330.34;5014280;28;45463;-72
2022/06/28 13:06:15;;;;;;;;;1.00;1.00;;;;;27.09;27.80;101327.16;5014208;28;45444;-72
2022/06/28 13:08:41;;;;;;;;;1.75;1.75;;;;;27.24;28.71;101332.91;5014721;28;45495;-72
2022/06/28 13:11:06;;;;;;;;;1.75;1.75;;;;;27.38;28.52;101321.31;5014338;28;45271;-72
2022/06/28 13:13:32;;;;;;;;;1.00;1.00;;;;;27.36;28.01;101309.56;5014255;28;46319;-70
2022/06/28 13:15:58;;;;;;;;;0.50;0.50;;;;;27.48;27.06;101311.00;5013589;28;45399;-72
2022/06/28 13:18:24;;;;;;;;;1.75;0.75;;;;;27.69;26.85;101309.72;5014623;28;45524;-71
2022/06/28 13:20:51;;;;;;;;;1.00;1.00;;;;;27.83;26.81;101300.78;5014155;28;45397;-71
2022/06/28 13:23:17;;;;;;;;;1.75;1.75;;;;;27.97;25.58;101277.25;5012641;28;46362;-72
2022/06/28 13:25:42;;;;;;;;;0.75;0.75;;;;;28.14;26.60;101293.63;5022276;28;45482;-69
2022/06/28 13:28:08;;;;;;;;;1.25;1.25;;;;;28.23;24.80;101287.13;5014640;28;45352;-74
2022/06/28 13:30:36;;;;;;;;;3.00;1.00;;;;;28.27;25.23;101282.13;5013058;28;46091;-72
2022/06/28 13:33:03;;;;;;;;;0.50;0.50;;;;;28.31;26.29;101263.34;5014237;28;45384;-74
2022/06/28 13:35:28;;;;;;;;;1.00;1.00;;;;;28.46;26.12;101272.63;5026368;28;45592;-74
2022/06/28 13:37:54;;;;;;;;;1.00;1.00;;;;;28.51;25.67;101278.47;5034371;28;45645;-72
2022/06/28 13:40:19;;;;;;;;;2.00;2.00;;;;;28.54;26.12;101273.47;5033775;28;45468;-74
2022/06/28 13:42:44;;;;;;;;;1.75;1.00;;;;;28.61;25.97;101271.75;5022881;28;46439;-73
2022/06/28 13:45:10;;;;;;;;;1.50;0.00;;;;;28.65;25.33;101276.94;5013988;28;45443;-76
2022/06/28 13:47:37;;;;;;;;;1.25;1.25;;;;;28.64;24.97;101276.06;5014519;28;45487;-75
2022/06/28 13:50:03;;;;;;;;;0.75;0.75;;;;;28.67;25.99;101270.19;5013905;28;45372;-74
2022/06/28 13:52:28;;;;;;;;;1.25;1.25;;;;;28.77;26.47;101270.88;5013501;28;46051;-75
2022/06/28 13:54:53;;;;;;;;;1.00;1.00;;;;;28.85;25.18;101251.53;5013374;28;45542;-74
2022/06/28 13:57:19;;;;;;;;;1.00;1.00;;;;;29.03;25.02;101259.59;5014241;28;45501;-75
2022/06/28 13:59:46;;;;;;;;;1.00;1.00;;;;;29.10;25.23;101265.25;5010010;28;46091;-76
2022/06/28 14:02:12;;;;;;;;;0.00;0.00;;;;;29.19;25.88;101244.88;5005316;28;45396;-75
2022/06/28 14:04:38;;;;;;;;;3.25;2.00;;;;;29.26;24.14;101256.94;5014093;28;45311;-74
2022/06/28 14:07:04;;;;;;;;;1.75;0.50;;;;;29.31;25.25;101255.34;5013941;28;45349;-73
2022/06/28 14:09:30;;;;;;;;;0.50;0.50;;;;;29.42;25.47;101243.09;5013954;28;45389;-76
2022/06/28 14:11:55;;;;;;;;;1.00;1.00;;;;;29.51;24.30;101264.09;5007128;28;47026;-77
2022/06/28 14:14:20;;;;;;;;;1.50;1.00;;;;;29.59;23.99;101247.47;5013998;28;45428;-74
2022/06/28 14:16:46;;;;;;;;;1.00;1.00;;;;;29.44;23.64;101235.44;5013973;28;45628;-76
2022/06/28 14:19:11;;;;;;;;;2.00;1.00;;;;;29.39;24.32;101237.03;5014075;28;46570;-77
2022/06/28 14:21:37;;;;;;;;;2.00;0.00;;;;;29.42;24.00;101242.22;5033935;28;45340;-73
2022/06/28 14:24:02;;;;;;;;;1.00;1.00;;;;;29.52;24.53;101246.44;5033443;28;45663;-76
2022/06/28 14:26:27;;;;;;;;;0.75;0.75;;;;;29.54;23.63;101243.50;5026513;28;45301;-74
2022/06/28 14:28:56;;;;;;;;;1.25;1.00;;;;;29.58;23.90;101244.88;5017056;28;45554;-74
2022/06/28 14:31:23;;;;;;;;;1.00;1.00;;;;;29.65;24.19;101235.69;5014118;28;48462;-73
2022/06/28 14:33:48;;;;;;;;;1.50;0.00;;;;;29.73;23.44;101243.06;5036240;28;45332;-73
2022/06/28 14:36:13;;;;;;;;;1.50;0.50;;;;;29.59;24.21;101230.91;5037236;28;45429;-75
2022/06/28 14:38:39;;;;;;;;;1.00;1.00;;;;;29.45;24.96;101228.03;5036904;28;45478;-74
2022/06/28 14:41:04;;;;;;;;;1.00;1.00;;;;;29.57;24.58;101213.63;5036703;28;50628;-73
2022/06/28 14:43:29;;;;;;;;;1.00;1.00;;;;;29.74;24.51;101206.09;5033138;28;46935;-73
2022/06/28 14:45:54;;;;;;;;;1.00;1.00;;;;;29.89;24.33;101206.13;5037138;28;45493;-73
2022/06/28 14:48:22;;;;;;;;;1.00;1.00;;;;;29.97;23.85;101218.03;5036817;28;45550;-72
2022/06/28 14:50:48;;;;;;;;;2.50;0.50;;;;;30.06;22.78;101211.38;5036792;28;45391;-75
2022/06/28 14:53:14;;;;;;;;;1.00;1.00;;;;;30.16;23.45;101213.91;5036588;28;45707;-72
2022/06/28 14:55:40;;;;;;;;;3.00;1.75;;;;;30.37;22.50;101208.50;5026586;28;45426;-71
2022/06/28 14:58:07;;;;;;;;;1.00;1.00;;;;;30.54;23.28;101202.84;5016780;28;45420;-70
2022/06/28 15:00:33;;;;;;;;;1.00;1.00;;;;;30.64;23.03;101200.66;5016923;28;45373;-70
2022/06/28 15:02:58;;;;;;;;;1.75;1.75;;;;;30.71;23.33;101196.91;5015732;28;45327;-71
2022/06/28 15:05:24;;;;;;;;;1.00;1.00;;;;;30.67;22.42;101181.75;5017005;28;45524;-72
2022/06/28 15:07:49;;;;;;;;;2.00;1.50;;;;;30.74;22.83;101202.09;5016841;28;45468;-72
2022/06/28 15:10:15;;;;;;;;;1.00;1.00;;;;;30.89;22.73;101212.28;5016642;28;45337;-72
2022/06/28 15:12:41;;;;;;;;;1.00;1.00;;;;;30.98;22.86;101208.38;5016861;28;45290;-73
2022/06/28 15:15:07;;;;;;;;;1.00;1.00;;;;;31.18;23.19;101206.78;5016786;28;45673;-71
2022/06/28 15:17:32;;;;;;;;;2.00;2.00;;;;;31.22;22.44;101198.94;5016358;28;45279;-71
2022/06/28 15:19:57;;;;;;;;;2.50;1.00;;;;;31.13;23.17;101195.44;4998766;28;47272;-72
2022/06/28 15:30:54;;;;;;;;;2.00;1.00;;;;;31.51;23.02;101179.47;4974072;28;45431;-73
2022/06/28 15:33:22;;;;;;;;;1.75;1.00;;;;;31.69;21.61;101191.00;4999080;28;45399;-70
2022/06/28 15:35:48;;;;;;;;;3.00;1.00;;;;;31.77;21.30;101192.78;5016015;28;45366;-71
2022/06/28 15:38:14;;;;;;;;;1.00;1.00;;;;;31.82;21.53;101190.25;5015271;28;46270;-71
2022/06/28 15:40:41;;;;;;;;;0.00;0.00;;;;;31.80;21.14;101184.06;5015822;28;45361;-73
2022/06/28 15:43:06;;;;;;;;;1.25;1.25;;;;;31.83;20.81;101178.09;5016440;28;45412;-73
2022/06/28 15:45:32;;;;;;;;;1.00;1.00;;;;;31.88;21.47;101167.28;5016019;28;45413;-70
2022/06/28 15:47:57;;;;;;;;;1.00;1.00;;;;;31.97;21.19;101174.44;5016561;28;45348;-72
2022/06/28 15:50:23;;;;;;;;;1.00;1.00;;;;;32.08;20.92;101184.97;5015858;28;45916;-73
2022/06/28 15:52:48;;;;;;;;;2.00;1.00;;;;;32.10;21.24;101177.31;4999747;28;45794;-72
2022/06/28 15:55:14;;;;;;;;;1.25;1.25;;;;;32.08;21.08;101173.88;5016159;28;45317;-72
2022/06/28 15:57:40;;;;;;;;;2.00;2.00;;;;;31.82;21.48;101166.16;5016019;28;45229;-72
2022/06/28 16:00:09;;;;;;;;;2.25;1.00;;;;;31.77;21.44;101162.28;5016125;28;45436;-72
2022/06/28 16:02:34;;;;;;;;;0.75;0.75;;;;;31.85;21.15;101160.22;5025344;28;45403;-71
2022/06/28 16:04:59;;;;;;;;;1.00;1.00;;;;;31.72;21.32;101131.53;5015950;28;45375;-73
2022/06/28 16:07:25;;;;;;;;;1.00;1.00;;;;;32.04;21.65;101157.84;5015511;28;45510;-72
2022/06/28 16:09:50;;;;;;;;;1.00;1.00;;;;;32.36;21.44;101153.63;5015542;28;46052;-72